createdAt,value
2018-09-14T00:01:53.344Z,20.50
2018-09-14T00:04:21.823Z,19.63
2018-09-14T00:06:50.305Z,19.40
2018-09-14T00:09:19.527Z,18.37
2018-09-14T00:11:48.152Z,19.40
2018-09-14T00:14:16.715Z,20.20
2018-09-14T00:16:45.271Z,19.37
2018-09-14T00:19:14.666Z,18.60
2018-09-14T00:21:43.871Z,20.13
2018-09-14T00:24:12.281Z,19.77
2018-09-14T00:26:40.880Z,18.20
2018-09-14T00:29:09.360Z,18.50
2018-09-14T00:31:37.751Z,18.70
2018-09-14T00:34:06.198Z,19.43
2018-09-14T00:36:35.084Z,17.80
2018-09-14T00:39:03.638Z,17.03
2018-09-14T00:41:32.074Z,17.27
2018-09-14T00:44:00.483Z,15.67
2018-09-14T00:46:28.876Z,16.57
2018-09-14T00:48:57.242Z,17.20
2018-09-14T00:51:25.955Z,17.97
2018-09-14T00:53:54.417Z,19.37
2018-09-14T00:56:22.854Z,19.50
2018-09-14T00:58:51.388Z,19.00
2018-09-14T01:01:20.295Z,19.87
2018-09-14T01:03:49.085Z,19.53
2018-09-14T01:06:17.502Z,19.03
2018-09-14T01:08:46.628Z,18.63
2018-09-14T01:11:15.284Z,19.83
2018-09-14T01:13:43.794Z,20.23
2018-09-14T01:16:12.224Z,18.90
2018-09-14T01:18:41.426Z,18.17
2018-09-14T01:21:09.867Z,19.17
2018-09-14T01:23:38.516Z,20.33
2018-09-14T01:26:07.238Z,21.07
2018-09-14T01:28:35.830Z,19.30
2018-09-14T01:31:04.296Z,19.23
2018-09-14T01:33:33.305Z,20.67
2018-09-14T01:36:07.095Z,20.60
2018-09-14T01:38:35.483Z,21.70
2018-09-14T01:41:03.871Z,20.10
2018-09-14T01:43:32.247Z,22.07
2018-09-14T01:46:00.627Z,20.90
2018-09-14T01:48:29.448Z,21.63
2018-09-14T01:50:57.801Z,21.20
2018-09-14T01:53:26.223Z,22.10
2018-09-14T01:55:54.510Z,22.93
2018-09-14T01:58:22.855Z,21.97
2018-09-14T02:00:51.813Z,21.40
2018-09-14T02:03:20.231Z,21.57
2018-09-14T02:05:48.480Z,19.83
2018-09-14T02:08:16.837Z,20.30
2018-09-14T02:10:45.193Z,20.77
2018-09-14T02:13:13.572Z,19.57
2018-09-14T02:15:41.976Z,19.17
2018-09-14T02:18:10.290Z,19.57
2018-09-14T02:20:38.679Z,20.10
2018-09-14T02:23:07.062Z,20.23
2018-09-14T02:25:35.436Z,20.70
2018-09-14T02:28:03.780Z,20.60
2018-09-14T02:30:32.117Z,21.17
2018-09-14T02:33:01.243Z,20.53
2018-09-14T02:35:30.530Z,20.20
2018-09-14T02:37:58.905Z,20.23
2018-09-14T02:40:27.266Z,20.63
2018-09-14T02:42:55.587Z,22.50
2018-09-14T02:45:23.933Z,20.90
2018-09-14T02:47:52.562Z,19.20
2018-09-14T02:50:20.968Z,19.77
2018-09-14T02:52:49.328Z,19.40
2018-09-14T02:55:17.731Z,19.87
2018-09-14T02:57:46.851Z,18.37
2018-09-14T03:00:15.293Z,17.63
2018-09-14T03:02:43.596Z,17.80
2018-09-14T03:05:11.950Z,16.23
2018-09-14T03:07:40.470Z,17.03
2018-09-14T03:10:09.795Z,17.63
2018-09-14T03:12:38.105Z,17.63
2018-09-14T03:15:06.483Z,17.47
2018-09-14T03:17:35.520Z,17.77
2018-09-14T03:20:03.968Z,17.57
2018-09-14T03:22:32.295Z,18.07
2018-09-14T03:25:00.649Z,18.10
2018-09-14T03:27:28.991Z,17.30
2018-09-14T03:29:57.305Z,18.90
2018-09-14T03:32:25.717Z,17.47
2018-09-14T03:34:54.062Z,19.07
2018-09-14T03:37:22.383Z,17.20
2018-09-14T03:39:50.688Z,18.53
2018-09-14T03:42:19.087Z,17.60
2018-09-14T03:44:47.482Z,18.40
2018-09-14T03:47:15.819Z,20.17
2018-09-14T03:49:44.215Z,19.77
2018-09-14T03:52:12.608Z,19.37
2018-09-14T03:54:40.971Z,18.83
2018-09-14T03:57:09.365Z,20.03
2018-09-14T03:59:38.672Z,20.73
2018-09-14T04:02:07.690Z,19.80
2018-09-14T04:04:36.646Z,20.53
2018-09-14T04:07:05.127Z,21.63
2018-09-14T04:09:33.663Z,21.37
2018-09-14T04:12:02.236Z,20.80
2018-09-14T04:14:30.649Z,22.77
2018-09-14T04:16:59.151Z,21.43
2018-09-14T04:19:27.563Z,21.20
2018-09-14T04:21:55.958Z,24.23
2018-09-14T04:24:24.371Z,25.27
2018-09-14T04:26:52.840Z,24.80
2018-09-14T04:29:21.325Z,30.73
2018-09-14T04:31:50.145Z,33.70
2018-09-14T04:34:18.915Z,32.03
2018-09-14T04:36:47.366Z,31.50
2018-09-14T04:39:15.804Z,31.90
2018-09-14T04:41:44.265Z,35.20
2018-09-14T04:44:12.607Z,35.77
2018-09-14T04:46:41.091Z,31.73
2018-09-14T04:49:09.443Z,34.57
2018-09-14T04:51:37.858Z,35.23
2018-09-14T04:54:06.238Z,34.47
2018-09-14T04:56:34.867Z,34.50
2018-09-14T04:59:03.306Z,33.77
2018-09-14T05:01:31.623Z,35.30
2018-09-14T05:03:59.962Z,34.07
2018-09-14T05:06:28.307Z,34.23
2018-09-14T05:08:56.625Z,34.87
2018-09-14T05:11:25.241Z,32.47
2018-09-14T05:13:54.697Z,35.33
2018-09-14T05:16:23.013Z,34.37
2018-09-14T05:18:51.352Z,35.40
2018-09-14T05:21:19.684Z,34.70
2018-09-14T05:23:48.126Z,34.30
2018-09-14T05:26:16.469Z,32.20
2018-09-14T05:28:44.810Z,33.00
2018-09-14T05:31:13.196Z,33.67
2018-09-14T05:33:41.523Z,33.20
2018-09-14T05:36:09.907Z,29.10
2018-09-14T05:38:39.678Z,34.70
2018-09-14T05:41:08.121Z,31.53
2018-09-14T05:43:36.920Z,31.63
2018-09-14T05:46:05.260Z,33.07
2018-09-14T05:48:34.045Z,32.90
2018-09-14T05:51:02.365Z,33.60
2018-09-14T05:53:30.813Z,31.87
2018-09-14T05:55:59.187Z,29.70
2018-09-14T05:58:28.846Z,28.63
2018-09-14T06:00:57.260Z,27.83
2018-09-14T06:03:25.652Z,27.97
2018-09-14T06:05:54.054Z,28.53
2018-09-14T06:08:23.774Z,24.73
2018-09-14T06:10:52.185Z,22.70
2018-09-14T06:13:20.575Z,25.40
2018-09-14T06:15:49.535Z,24.73
2018-09-14T06:18:18.104Z,27.03
2018-09-14T06:20:46.472Z,23.80
2018-09-14T06:23:14.862Z,24.50
2018-09-14T06:25:43.742Z,25.17
2018-09-14T06:28:12.148Z,25.33
2018-09-14T06:30:40.519Z,23.60
2018-09-14T06:33:08.895Z,24.97
2018-09-14T06:35:37.365Z,24.97
2018-09-14T06:38:05.825Z,28.63
2018-09-14T06:40:35.360Z,25.80
2018-09-14T06:43:04.242Z,25.87
2018-09-14T06:45:32.633Z,25.70
2018-09-14T06:48:00.942Z,25.33
2018-09-14T06:50:29.783Z,27.33
2018-09-14T06:52:58.119Z,25.83
2018-09-14T06:55:27.166Z,29.10
2018-09-14T06:57:55.649Z,29.10
2018-09-14T07:00:24.080Z,26.80
2018-09-14T07:02:52.397Z,29.07
2018-09-14T07:05:21.214Z,28.23
2018-09-14T07:07:50.606Z,30.60
2018-09-14T07:10:19.545Z,25.53
2018-09-14T07:12:51.885Z,22.87
2018-09-14T07:15:21.062Z,24.90
2018-09-14T07:17:49.392Z,25.63
2018-09-14T07:20:17.999Z,26.97
2018-09-14T07:22:46.349Z,29.03
2018-09-14T07:25:14.719Z,27.40
2018-09-14T07:27:43.089Z,28.93
2018-09-14T07:30:12.866Z,28.10
2018-09-14T07:32:41.268Z,26.30
2018-09-14T07:35:09.644Z,27.87
2018-09-14T07:37:37.979Z,25.00
2018-09-14T07:40:06.389Z,25.23
2018-09-14T07:42:34.785Z,25.13
2018-09-14T07:45:03.223Z,24.10
2018-09-14T07:47:31.758Z,21.27
2018-09-14T07:50:00.985Z,21.50
2018-09-14T07:52:29.348Z,18.97
2018-09-14T07:54:57.848Z,20.07
2018-09-14T07:57:26.199Z,20.00
2018-09-14T07:59:54.551Z,20.03
2018-09-14T08:02:22.935Z,18.03
2018-09-14T08:04:51.267Z,18.73
2018-09-14T08:07:20.098Z,20.00
2018-09-14T08:09:48.489Z,20.53
2018-09-14T08:12:16.835Z,20.63
2018-09-14T08:14:45.407Z,19.13
2018-09-14T08:17:13.775Z,18.70
2018-09-14T08:19:42.223Z,20.17
2018-09-14T08:22:10.620Z,18.13
2018-09-14T08:24:39.036Z,16.77
2018-09-14T08:27:07.108Z,18.20
2018-09-14T08:29:35.462Z,17.17
2018-09-14T08:32:03.856Z,18.83
2018-09-14T08:34:32.212Z,19.93
2018-09-14T08:37:00.556Z,18.83
2018-09-14T08:39:31.845Z,18.43
2018-09-14T08:42:00.203Z,18.23
2018-09-14T08:44:28.596Z,17.57
2018-09-14T08:46:57.549Z,17.47
2018-09-14T08:49:25.875Z,16.60
2018-09-14T08:51:54.201Z,17.23
2018-09-14T08:54:22.521Z,17.87
2018-09-14T08:56:50.841Z,17.77
2018-09-14T08:59:19.202Z,16.47
2018-09-14T09:01:47.537Z,17.27
2018-09-14T09:04:15.902Z,17.30
2018-09-14T09:06:44.463Z,16.30
2018-09-14T09:09:13.662Z,17.27
2018-09-14T09:11:42.689Z,16.13
2018-09-14T09:14:11.090Z,16.43
2018-09-14T09:16:40.215Z,15.80
2018-09-14T09:19:08.896Z,15.73
2018-09-14T09:21:37.294Z,15.00
2018-09-14T09:24:05.649Z,13.77
2018-09-14T09:26:33.974Z,13.57
2018-09-14T09:29:02.319Z,13.40
2018-09-14T09:31:30.709Z,12.90
2018-09-14T09:33:59.091Z,13.03
2018-09-14T09:36:27.423Z,11.13
2018-09-14T09:38:55.973Z,11.50
2018-09-14T09:41:24.361Z,11.00
2018-09-14T09:43:52.688Z,9.97
2018-09-14T09:46:21.078Z,10.47
2018-09-14T09:48:49.439Z,10.87
2018-09-14T09:51:18.015Z,9.30
2018-09-14T09:53:46.357Z,10.83
2018-09-14T09:56:14.722Z,9.37
2018-09-14T09:58:46.154Z,10.43
2018-09-14T10:01:19.712Z,9.23
2018-09-14T10:03:53.427Z,9.00
2018-09-14T10:06:25.748Z,6.67
2018-09-14T10:08:55.295Z,4.97
2018-09-14T10:11:23.728Z,5.37
2018-09-14T10:13:52.109Z,5.67
2018-09-14T10:16:20.514Z,5.57
2018-09-14T10:18:48.883Z,3.90
2018-09-14T10:21:17.371Z,4.67
2018-09-14T10:23:45.853Z,3.57
2018-09-14T10:26:14.183Z,4.10
2018-09-14T10:28:42.573Z,4.73
2018-09-14T10:31:10.945Z,4.70
2018-09-14T10:33:39.279Z,5.07
2018-09-14T10:36:07.677Z,4.40
2018-09-14T10:38:35.987Z,3.97
2018-09-14T10:41:04.352Z,3.80
2018-09-14T10:43:32.728Z,3.87
2018-09-14T10:46:01.134Z,3.80
2018-09-14T10:48:29.463Z,4.60
2018-09-14T10:50:58.487Z,3.60
2018-09-14T10:53:26.864Z,4.00
2018-09-14T10:55:55.211Z,4.03
2018-09-14T10:58:23.794Z,4.70
2018-09-14T11:00:52.279Z,4.57
2018-09-14T11:03:20.624Z,4.73
2018-09-14T11:05:48.970Z,4.70
2018-09-14T11:08:17.335Z,4.40
2018-09-14T11:10:45.952Z,4.40
2018-09-14T11:13:14.276Z,4.67
2018-09-14T11:15:42.632Z,4.20
2018-09-14T11:18:10.958Z,4.17
2018-09-14T11:20:39.357Z,3.90
2018-09-14T11:23:07.651Z,3.83
2018-09-14T11:25:37.604Z,3.80
2018-09-14T11:28:06.075Z,3.67
2018-09-14T11:30:34.401Z,3.60
2018-09-14T11:33:02.789Z,3.93
2018-09-14T11:35:31.128Z,3.20
2018-09-14T11:38:00.781Z,3.30
2018-09-14T11:40:28.997Z,3.10
2018-09-14T11:42:57.304Z,2.20
2018-09-14T11:45:25.731Z,2.90
2018-09-14T11:47:54.168Z,2.77
2018-09-14T11:50:22.531Z,2.20
2018-09-14T11:52:50.948Z,1.83
2018-09-14T11:55:19.284Z,2.07
2018-09-14T11:57:47.651Z,2.00
2018-09-14T12:00:16.183Z,2.13
2018-09-14T12:02:44.488Z,2.00
2018-09-14T12:05:12.875Z,2.30
2018-09-14T12:07:41.283Z,1.77
2018-09-14T12:10:09.939Z,1.90
2018-09-14T12:12:38.278Z,2.10
2018-09-14T12:15:06.656Z,1.77
2018-09-14T12:17:34.967Z,2.83
2018-09-14T12:20:03.580Z,2.40
2018-09-14T12:22:31.963Z,2.40
2018-09-14T12:25:00.756Z,3.30
2018-09-14T12:27:29.168Z,3.57
2018-09-14T12:29:57.551Z,3.17
2018-09-14T12:32:25.986Z,3.70
2018-09-14T12:34:54.412Z,4.57
2018-09-14T12:37:23.748Z,4.30
2018-09-14T12:39:52.090Z,4.10
2018-09-14T12:42:20.455Z,4.63
2018-09-14T12:44:48.819Z,4.37
2018-09-14T12:47:17.244Z,4.03
2018-09-14T12:49:45.556Z,4.60
2018-09-14T12:52:13.962Z,4.70
2018-09-14T12:54:42.291Z,4.50
2018-09-14T12:57:10.889Z,4.00
2018-09-14T12:59:39.233Z,3.90
2018-09-14T13:02:08.239Z,4.23
2018-09-14T13:04:36.602Z,3.97
2018-09-14T13:07:06.306Z,4.00
2018-09-14T13:09:34.665Z,4.23
2018-09-14T13:12:03.202Z,5.23
2018-09-14T13:14:31.574Z,4.60
2018-09-14T13:17:00.628Z,4.50
2018-09-14T13:19:29.714Z,5.10
2018-09-14T13:21:58.039Z,4.57
2018-09-14T13:24:26.362Z,4.60
2018-09-14T13:26:54.742Z,4.33
2018-09-14T13:29:23.068Z,4.87
2018-09-14T13:31:51.374Z,4.27
2018-09-14T13:34:19.695Z,4.57
2018-09-14T13:36:48.161Z,4.97
2018-09-14T13:39:17.419Z,3.70
2018-09-14T13:41:45.934Z,4.20
2018-09-14T13:44:14.600Z,4.80
2018-09-14T13:46:43.116Z,4.83
2018-09-14T13:49:11.624Z,4.97
2018-09-14T13:51:40.094Z,5.47
2018-09-14T13:54:08.551Z,5.20
2018-09-14T13:56:37.012Z,5.20
2018-09-14T13:59:11.841Z,5.07
2018-09-14T14:01:41.153Z,4.83
2018-09-14T14:04:09.631Z,4.07
2018-09-14T14:06:38.361Z,3.60
2018-09-14T14:09:09.541Z,3.83
2018-09-14T14:11:38.099Z,3.90
2018-09-14T14:14:07.134Z,3.37
2018-09-14T14:16:35.589Z,3.90
2018-09-14T14:19:04.075Z,3.80
2018-09-14T14:21:32.543Z,3.40
2018-09-14T14:24:01.622Z,3.40
2018-09-14T14:26:30.297Z,3.70
2018-09-14T14:28:58.890Z,3.20
2018-09-14T14:31:28.157Z,3.63
2018-09-14T14:33:56.733Z,3.43
2018-09-14T14:36:25.771Z,3.20
2018-09-14T14:38:54.304Z,2.70
2018-09-14T14:41:22.884Z,3.00
2018-09-14T14:43:51.243Z,2.80
2018-09-14T14:46:19.728Z,3.23
2018-09-14T14:48:48.280Z,2.93
2018-09-14T14:51:16.770Z,3.00
2018-09-14T14:53:45.247Z,2.60
2018-09-14T14:56:13.718Z,2.80
2018-09-14T14:58:42.299Z,3.40
2018-09-14T15:01:10.814Z,3.20
2018-09-14T15:03:39.280Z,3.00
2018-09-14T15:06:08.169Z,2.97
2018-09-14T15:08:36.808Z,2.80
2018-09-14T15:11:05.335Z,2.97
2018-09-14T15:13:33.960Z,2.50
2018-09-14T15:16:02.447Z,2.47
2018-09-14T15:18:30.983Z,2.50
2018-09-14T15:20:59.480Z,3.23
2018-09-14T15:23:28.113Z,2.80
2018-09-14T15:25:56.762Z,3.00
2018-09-14T15:28:25.246Z,2.90
2018-09-14T15:30:53.676Z,2.97
2018-09-14T15:33:22.268Z,2.73
2018-09-14T15:35:50.713Z,2.80
2018-09-14T15:38:19.217Z,3.13
2018-09-14T15:40:48.618Z,3.07
2018-09-14T15:43:17.067Z,3.13
2018-09-14T15:45:45.489Z,3.67
2018-09-14T15:48:16.388Z,2.90
2018-09-14T15:50:44.884Z,2.77
2018-09-14T15:53:13.372Z,3.00
2018-09-14T15:55:41.894Z,2.80
2018-09-14T15:58:10.922Z,2.93
2018-09-14T16:00:39.419Z,3.17
2018-09-14T16:03:07.867Z,3.27
2018-09-14T16:05:36.320Z,3.23
2018-09-14T16:08:04.731Z,3.50
2018-09-14T16:10:33.172Z,3.50
2018-09-14T16:13:02.109Z,3.13
2018-09-14T16:15:30.639Z,3.30
2018-09-14T16:17:59.134Z,3.40
2018-09-14T16:20:27.613Z,3.20
2018-09-14T16:22:56.135Z,3.70
2018-09-14T16:25:24.677Z,3.47
2018-09-14T16:27:53.117Z,3.13
2018-09-14T16:30:21.715Z,3.23
2018-09-14T16:32:50.148Z,2.90
2018-09-14T16:35:18.544Z,3.30
2018-09-14T16:37:47.086Z,3.40
2018-09-14T16:40:15.713Z,3.13
2018-09-14T16:42:44.289Z,3.37
2018-09-14T16:45:12.837Z,3.40
2018-09-14T16:47:41.823Z,3.40
2018-09-14T16:50:10.283Z,3.90
2018-09-14T16:52:38.783Z,3.47
2018-09-14T16:55:08.916Z,3.60
2018-09-14T16:57:39.132Z,3.40
2018-09-14T17:00:08.844Z,4.77
2018-09-14T17:02:37.682Z,5.20
2018-09-14T17:05:06.548Z,5.70
2018-09-14T17:07:35.177Z,6.20
2018-09-14T17:10:03.991Z,5.70
2018-09-14T17:12:32.694Z,5.20
2018-09-14T17:15:01.298Z,4.13
2018-09-14T17:17:29.960Z,4.63
2018-09-14T17:19:58.487Z,3.67
2018-09-14T17:22:26.923Z,4.10
2018-09-14T17:24:55.419Z,4.17
2018-09-14T17:27:24.010Z,3.97
2018-09-14T17:29:52.702Z,4.50
2018-09-14T17:32:21.210Z,4.07
2018-09-14T17:34:49.742Z,4.00
2018-09-14T17:37:18.317Z,4.17
2018-09-14T17:39:47.773Z,4.20
2018-09-14T17:42:17.220Z,4.17
2018-09-14T17:44:45.699Z,4.40
2018-09-14T17:47:14.226Z,4.47
2018-09-14T17:49:42.691Z,5.03
2018-09-14T17:52:11.198Z,5.83
2018-09-14T17:54:39.761Z,5.60
2018-09-14T17:57:08.270Z,5.33
2018-09-14T17:59:36.643Z,4.93
2018-09-14T18:02:05.208Z,4.80
2018-09-14T18:04:33.878Z,4.77
2018-09-14T18:07:02.391Z,4.37
2018-09-14T18:09:31.028Z,5.00
2018-09-14T18:11:59.710Z,4.87
2018-09-14T18:14:28.400Z,4.73
2018-09-14T18:16:57.128Z,4.63
2018-09-14T18:19:26.086Z,4.53
2018-09-14T18:21:54.595Z,4.63
2018-09-14T18:24:23.575Z,4.20
2018-09-14T18:26:52.094Z,4.20
2018-09-14T18:29:20.576Z,4.40
2018-09-14T18:31:49.267Z,4.43
2018-09-14T18:34:17.733Z,4.30
2018-09-14T18:36:46.216Z,4.20
2018-09-14T18:39:15.692Z,4.60
2018-09-14T18:41:44.349Z,4.20
2018-09-14T18:44:12.779Z,5.27
2018-09-14T18:46:41.354Z,4.63
2018-09-14T18:49:10.276Z,5.63
2018-09-14T18:51:38.942Z,5.20
2018-09-14T18:54:08.106Z,5.53
2018-09-14T18:56:36.943Z,4.70
2018-09-14T18:59:05.929Z,5.47
2018-09-14T19:01:36.915Z,5.77
2018-09-14T19:04:05.497Z,5.63
2018-09-14T19:06:34.284Z,6.00
2018-09-14T19:09:02.832Z,5.53
2018-09-14T19:11:31.409Z,5.43
2018-09-14T19:13:59.848Z,5.27
2018-09-14T19:16:28.296Z,5.67
2018-09-14T19:18:56.889Z,5.37
2018-09-14T19:21:25.223Z,5.53
2018-09-14T19:23:53.627Z,5.07
2018-09-14T19:26:22.068Z,5.47
2018-09-14T19:28:50.534Z,6.27
2018-09-14T19:31:19.000Z,6.40
2018-09-14T19:33:47.645Z,6.70
2018-09-14T19:36:17.091Z,6.87
2018-09-14T19:38:45.603Z,6.37
2018-09-14T19:41:14.162Z,6.60
2018-09-14T19:43:42.657Z,6.70
2018-09-14T19:46:11.106Z,6.30
2018-09-14T19:48:39.539Z,7.17
2018-09-14T19:51:08.290Z,7.60
2018-09-14T19:53:36.817Z,7.40
2018-09-14T19:56:05.265Z,7.07
2018-09-14T19:58:33.675Z,7.13
2018-09-14T20:01:02.410Z,7.17
2018-09-14T20:03:30.825Z,7.13
2018-09-14T20:05:59.366Z,7.23
2018-09-14T20:08:27.824Z,6.83
2018-09-14T20:10:57.086Z,7.43
2018-09-14T20:13:25.796Z,6.67
2018-09-14T20:15:54.188Z,7.07
2018-09-14T20:18:23.528Z,7.53
2018-09-14T20:20:52.117Z,7.13
2018-09-14T20:23:21.591Z,7.30
2018-09-14T20:25:50.628Z,6.43
2018-09-14T20:28:18.924Z,7.33
2018-09-14T20:30:47.461Z,7.13
2018-09-14T20:33:16.306Z,7.70
2018-09-14T20:35:45.675Z,8.50
2018-09-14T20:38:14.491Z,6.77
2018-09-14T20:40:43.826Z,7.20
2018-09-14T20:43:13.097Z,7.77
2018-09-14T20:45:43.444Z,6.97
2018-09-14T20:48:12.531Z,6.53
2018-09-14T20:50:41.034Z,6.70
2018-09-14T20:53:09.424Z,6.97
2018-09-14T20:55:38.088Z,6.53
2018-09-14T20:58:06.450Z,7.87
2018-09-14T21:00:35.683Z,6.80
2018-09-14T21:03:06.905Z,6.60
2018-09-14T21:05:35.742Z,6.37
2018-09-14T21:08:04.147Z,6.17
2018-09-14T21:10:32.468Z,6.60
2018-09-14T21:13:02.368Z,5.37
2018-09-14T21:15:30.740Z,6.87
2018-09-14T21:17:59.093Z,6.07
2018-09-14T21:20:27.515Z,5.90
2018-09-14T21:22:55.847Z,7.07
2018-09-14T21:25:24.307Z,6.33
2018-09-14T21:27:52.897Z,6.40
2018-09-14T21:30:21.237Z,6.10
2018-09-14T21:32:49.613Z,5.80
2018-09-14T21:35:18.165Z,6.40
2018-09-14T21:37:46.656Z,6.10
2018-09-14T21:40:15.704Z,6.33
2018-09-14T21:42:44.084Z,5.93
2018-09-14T21:45:12.548Z,6.30
2018-09-14T21:47:40.900Z,6.37
2018-09-14T21:50:09.238Z,6.53
2018-09-14T21:52:37.662Z,5.90
2018-09-14T21:55:06.080Z,6.33
2018-09-14T21:57:34.535Z,5.57
2018-09-14T22:00:07.096Z,5.83
2018-09-14T22:02:35.490Z,6.13
2018-09-14T22:05:03.991Z,6.47
2018-09-14T22:07:32.345Z,6.40
2018-09-14T22:10:02.561Z,6.20
2018-09-14T22:12:31.050Z,5.80
2018-09-14T22:14:59.533Z,7.00
2018-09-14T22:17:27.906Z,6.37
2018-09-14T22:19:56.335Z,6.00
2018-09-14T22:22:24.725Z,6.87
2018-09-14T22:24:53.455Z,6.77
2018-09-14T22:27:21.811Z,6.70
2018-09-14T22:29:50.880Z,6.30
2018-09-14T22:32:19.298Z,6.10
2018-09-14T22:34:47.764Z,6.80
2018-09-14T22:37:16.112Z,6.00
2018-09-14T22:39:44.494Z,6.60
2018-09-14T22:42:12.858Z,6.10
2018-09-14T22:44:41.193Z,6.53
2018-09-14T22:47:09.508Z,6.83
2018-09-14T22:49:37.853Z,6.10
2018-09-14T22:52:06.941Z,6.43
2018-09-14T22:54:35.304Z,6.77
2018-09-14T22:57:03.652Z,6.67
2018-09-14T22:59:32.062Z,6.63
2018-09-14T23:02:00.411Z,6.20
2018-09-14T23:04:29.281Z,6.73
2018-09-14T23:06:57.642Z,6.47
2018-09-14T23:09:26.339Z,6.50
2018-09-14T23:11:54.617Z,6.20
2018-09-14T23:14:23.062Z,7.23
2018-09-14T23:16:52.197Z,6.17
2018-09-14T23:19:20.567Z,6.30
2018-09-14T23:21:49.019Z,6.63
2018-09-14T23:24:17.903Z,6.67
2018-09-14T23:26:46.337Z,6.63
2018-09-14T23:29:14.716Z,6.30
2018-09-14T23:31:43.652Z,6.27
2018-09-14T23:34:12.017Z,7.13
2018-09-14T23:36:40.397Z,6.53
2018-09-14T23:39:10.149Z,6.93
2018-09-14T23:41:38.521Z,6.67
2018-09-14T23:44:06.979Z,7.30
2018-09-14T23:46:35.387Z,7.40
2018-09-14T23:49:03.874Z,8.10
2018-09-14T23:51:32.197Z,8.17
2018-09-14T23:54:00.563Z,8.00
2018-09-14T23:56:28.923Z,7.90
2018-09-14T23:58:57.252Z,8.20
